Time;durP1;ratioP1;P1;durP2;ratioP2;P2;SDS_P1;SDS_P2;PMS_P1;PMS_P2;Temp;Humidity;BMP_temperature;BMP_pressure;BME280_temperature;BME280_humidity;BME280_pressure;Samples;Min_cycle;Max_cycle;Signal;HPM_P1;HPM_P2
2021/04/20 00:00:42;;;;;;;78.63;42.92;;;7.10;99.90;;;;;;5055754;28;20027;-72
2021/04/20 00:03:07;;;;;;;85.00;44.63;;;7.10;99.90;;;;;;5055491;28;20096;-72
2021/04/20 00:05:33;;;;;;;80.95;44.83;;;7.10;99.90;;;;;;5054268;28;20036;-72
2021/04/20 00:07:58;;;;;;;82.80;43.70;;;7.10;99.90;;;;;;5055389;28;20025;-72
2021/04/20 00:10:24;;;;;;;91.80;48.05;;;7.10;99.90;;;;;;5054338;28;20446;-72
2021/04/20 00:12:50;;;;;;;87.93;46.65;;;7.10;99.90;;;;;;5054121;28;20092;-72
2021/04/20 00:15:28;;;;;;;97.22;48.50;;;7.20;99.90;;;;;;5053383;28;20466;-72
2021/04/20 00:17:56;;;;;;;84.03;44.67;;;7.20;99.90;;;;;;5054917;28;20100;-72
2021/04/20 00:20:22;;;;;;;89.28;46.78;;;7.10;99.90;;;;;;5053946;28;20025;-73
2021/04/20 00:22:48;;;;;;;89.15;45.72;;;7.10;99.90;;;;;;5055058;28;20463;-72
2021/04/20 00:25:14;;;;;;;84.60;46.08;;;7.10;99.90;;;;;;5055038;28;20115;-73
2021/04/20 00:27:40;;;;;;;86.72;44.95;;;7.10;99.90;;;;;;5053562;28;20025;-72
2021/04/20 00:30:07;;;;;;;85.43;46.10;;;7.10;99.90;;;;;;5053423;28;20051;-72
2021/04/20 00:32:33;;;;;;;84.43;44.50;;;7.20;99.90;;;;;;5054865;28;20086;-73
2021/04/20 00:34:59;;;;;;;86.32;44.88;;;7.20;99.90;;;;;;5019773;28;20051;-72
2021/04/20 00:37:24;;;;;;;85.65;45.13;;;7.20;99.90;;;;;;5054785;28;20017;-72
2021/04/20 00:39:50;;;;;;;83.72;45.50;;;7.20;99.90;;;;;;5053586;28;20021;-73
2021/04/20 00:42:16;;;;;;;85.50;44.53;;;7.20;99.90;;;;;;5054681;28;20454;-72
2021/04/20 00:44:42;;;;;;;87.45;45.88;;;7.20;99.90;;;;;;5053231;28;20025;-72
2021/04/20 00:47:07;;;;;;;95.78;48.08;;;7.10;99.90;;;;;;5054633;28;20033;-72
2021/04/20 00:49:33;;;;;;;84.47;46.70;;;7.20;99.90;;;;;;5053447;28;20029;-72
2021/04/20 00:51:59;;;;;;;88.60;46.33;;;7.20;99.90;;;;;;5052775;28;20470;-72
2021/04/20 00:54:25;;;;;;;86.10;45.90;;;7.20;99.90;;;;;;5054449;28;20036;-72
2021/04/20 00:56:52;;;;;;;88.82;45.85;;;7.30;99.90;;;;;;5052642;28;20021;-72
2021/04/20 00:59:18;;;;;;;83.85;45.17;;;7.30;99.90;;;;;;5054165;28;20020;-72
2021/04/20 01:01:44;;;;;;;89.75;46.85;;;7.30;99.90;;;;;;5052886;28;20028;-72
2021/04/20 01:04:12;;;;;;;94.55;49.33;;;7.30;99.90;;;;;;5054069;28;20370;-72
2021/04/20 01:06:39;;;;;;;92.47;47.92;;;7.40;99.90;;;;;;5053117;28;20021;-72
2021/04/20 01:09:06;;;;;;;93.50;49.40;;;7.30;99.90;;;;;;5054250;28;20370;-73
2021/04/20 01:11:33;;;;;;;100.05;52.10;;;7.40;99.90;;;;;;5054236;28;20111;-72
2021/04/20 01:14:01;;;;;;;95.63;49.35;;;7.40;99.90;;;;;;5053648;28;20025;-72
2021/04/20 01:16:26;;;;;;;94.70;50.42;;;7.50;99.90;;;;;;5035912;28;20037;-73
2021/04/20 01:18:52;;;;;;;84.60;45.60;;;7.50;99.90;;;;;;5052682;28;20043;-73
2021/04/20 01:21:19;;;;;;;91.93;48.90;;;7.50;99.90;;;;;;5054080;28;20468;-72
2021/04/20 01:24:02;;;;;;;101.60;54.22;;;7.60;99.90;;;;;;5054048;28;20052;-73
2021/04/20 01:26:31;;;;;;;97.75;51.40;;;7.60;99.90;;;;;;5053784;28;20104;-72
2021/04/20 01:28:57;;;;;;;90.90;50.72;;;7.60;99.90;;;;;;5052724;28;20067;-72
2021/04/20 01:31:23;;;;;;;93.88;51.17;;;7.70;99.90;;;;;;5052532;28;20053;-72
2021/04/20 01:33:49;;;;;;;98.85;51.95;;;7.70;99.90;;;;;;5053701;28;20517;-73
2021/04/20 01:36:20;;;;;;;99.22;52.97;;;7.70;99.90;;;;;;5052081;28;20033;-73
2021/04/20 01:38:47;;;;;;;96.85;51.83;;;7.70;99.90;;;;;;5053868;28;20532;-73
2021/04/20 01:41:13;;;;;;;86.68;47.45;;;7.80;99.90;;;;;;5052702;28;20029;-73
2021/04/20 01:43:39;;;;;;;90.40;48.72;;;7.80;99.90;;;;;;5035438;28;20107;-73
2021/04/20 01:46:05;;;;;;;87.60;47.55;;;7.80;99.90;;;;;;5052015;28;20060;-73
2021/04/20 01:48:31;;;;;;;88.43;46.72;;;7.80;99.90;;;;;;5052626;28;20029;-73
2021/04/20 01:50:58;;;;;;;87.70;48.55;;;7.90;99.90;;;;;;5053763;28;20086;-73
2021/04/20 01:53:23;;;;;;;90.15;49.95;;;7.90;99.90;;;;;;5053515;28;20017;-73
2021/04/20 01:55:55;;;;;;;94.80;49.90;;;7.90;99.90;;;;;;5035691;28;20025;-73
2021/04/20 01:58:21;;;;;;;93.10;52.15;;;7.90;99.90;;;;;;5053508;28;20021;-73
2021/04/20 02:00:47;;;;;;;92.47;49.35;;;7.90;99.90;;;;;;5052588;28;20450;-73
2021/04/20 02:03:12;;;;;;;90.60;48.78;;;7.90;99.90;;;;;;5053697;28;20028;-73
2021/04/20 02:05:39;;;;;;;91.55;48.58;;;7.90;99.90;;;;;;5053412;28;20021;-73
2021/04/20 02:08:05;;;;;;;91.40;49.70;;;7.90;99.90;;;;;;5051938;28;20497;-73
2021/04/20 02:10:32;;;;;;;91.20;49.97;;;8.00;99.90;;;;;;5053387;28;20488;-73
2021/04/20 02:12:58;;;;;;;98.00;51.28;;;8.00;99.90;;;;;;5052130;28;20103;-73
2021/04/20 02:15:24;;;;;;;94.45;51.05;;;8.00;99.90;;;;;;5053235;28;20104;-73
2021/04/20 02:17:50;;;;;;;94.40;48.88;;;8.00;99.90;;;;;;5056112;28;20083;-73
2021/04/20 02:20:16;;;;;;;93.78;49.28;;;8.00;99.90;;;;;;5056883;28;20063;-73
2021/04/20 02:22:45;;;;;;;97.15;49.47;;;8.00;99.90;;;;;;5057390;28;20039;-73
2021/04/20 02:25:14;;;;;;;88.32;48.85;;;8.00;99.90;;;;;;5056190;28;20485;-73
2021/04/20 02:27:40;;;;;;;95.82;48.85;;;8.00;99.90;;;;;;5057294;28;20030;-73
2021/04/20 02:30:09;;;;;;;94.05;48.38;;;8.00;99.90;;;;;;5055806;28;20063;-73
2021/04/20 02:32:37;;;;;;;89.30;47.92;;;8.00;99.90;;;;;;5055399;28;20033;-73
2021/04/20 02:35:05;;;;;;;84.45;46.35;;;8.00;99.90;;;;;;5056494;28;20049;-72
2021/04/20 02:37:32;;;;;;;83.65;46.67;;;8.00;99.90;;;;;;5039183;28;20025;-73
2021/04/20 02:39:58;;;;;;;87.82;47.53;;;8.00;99.90;;;;;;5057050;28;20021;-72
2021/04/20 02:42:25;;;;;;;93.90;47.53;;;8.10;99.90;;;;;;5056994;28;20031;-72
2021/04/20 02:44:52;;;;;;;90.72;47.78;;;8.10;99.90;;;;;;5056983;28;20036;-72
2021/04/20 02:47:18;;;;;;;91.25;47.50;;;8.10;99.90;;;;;;5056353;28;20024;-72
2021/04/20 02:49:43;;;;;;;91.82;49.08;;;8.10;99.90;;;;;;5055622;28;20036;-72
2021/04/20 02:52:09;;;;;;;88.72;47.08;;;8.00;99.90;;;;;;5039312;28;20025;-72
2021/04/20 02:54:35;;;;;;;85.57;47.25;;;8.00;99.90;;;;;;5056676;28;20469;-72
2021/04/20 02:57:02;;;;;;;91.40;49.25;;;8.00;99.90;;;;;;5056440;28;20108;-72
2021/04/20 02:59:28;;;;;;;84.75;47.80;;;8.00;99.90;;;;;;5056139;28;20163;-72
2021/04/20 03:01:57;;;;;;;91.65;47.83;;;8.10;99.90;;;;;;5055646;28;20032;-72
2021/04/20 03:04:23;;;;;;;85.18;46.25;;;8.10;99.90;;;;;;5056284;28;20532;-72
2021/04/20 03:06:49;;;;;;;90.75;48.55;;;8.10;99.90;;;;;;5054721;28;20025;-72
2021/04/20 03:09:14;;;;;;;91.25;48.72;;;8.00;99.90;;;;;;5054766;28;20020;-72
2021/04/20 03:11:52;;;;;;;91.50;48.83;;;7.90;99.90;;;;;;5054632;28;20021;-72
2021/04/20 03:14:18;;;;;;;89.47;48.20;;;7.90;99.90;;;;;;5056338;28;20029;-72
2021/04/20 03:16:44;;;;;;;93.70;49.13;;;7.90;99.90;;;;;;5056093;28;20024;-73
2021/04/20 03:19:09;;;;;;;91.55;47.28;;;7.80;99.90;;;;;;5056054;28;20017;-73
2021/04/20 03:21:36;;;;;;;93.55;48.08;;;7.80;99.90;;;;;;5056267;28;20025;-73
2021/04/20 03:24:03;;;;;;;90.82;49.05;;;7.90;99.90;;;;;;5055948;28;20021;-72
2021/04/20 03:26:34;;;;;;;90.55;47.95;;;7.90;99.90;;;;;;5055923;28;20425;-73
2021/04/20 03:29:03;;;;;;;89.70;47.83;;;7.80;99.90;;;;;;5055546;28;20025;-73
2021/04/20 03:31:29;;;;;;;96.88;49.47;;;7.80;99.90;;;;;;5056083;28;20422;-73
2021/04/20 03:34:05;;;;;;;89.13;47.35;;;7.80;99.90;;;;;;5055515;28;20154;-72
2021/04/20 03:36:39;;;;;;;90.05;48.85;;;7.80;99.90;;;;;;5054496;28;20033;-73
2021/04/20 03:39:14;;;;;;;91.57;47.95;;;7.80;99.90;;;;;;5055955;28;20032;-73
2021/04/20 03:41:56;;;;;;;92.05;49.15;;;7.70;99.90;;;;;;5054461;28;20017;-73
2021/04/20 03:44:27;;;;;;;86.85;45.83;;;7.70;99.90;;;;;;5055855;28;20474;-72
2021/04/20 03:46:57;;;;;;;90.25;46.63;;;7.70;99.90;;;;;;5055840;28;20028;-73
2021/04/20 03:49:28;;;;;;;89.72;47.67;;;7.60;99.90;;;;;;5054666;28;20032;-73
2021/04/20 03:51:55;;;;;;;94.68;48.70;;;7.60;99.90;;;;;;5055176;28;20155;-73
2021/04/20 03:54:24;;;;;;;88.75;47.47;;;7.60;99.90;;;;;;5055615;28;20056;-73
2021/04/20 03:56:53;;;;;;;90.60;47.70;;;7.60;99.90;;;;;;5055097;28;20037;-73
2021/04/20 03:59:21;;;;;;;94.25;48.50;;;7.70;99.90;;;;;;5054169;28;20024;-73
2021/04/20 04:01:49;;;;;;;96.05;50.63;;;7.60;99.90;;;;;;5055513;28;20057;-73
2021/04/20 04:04:19;;;;;;;94.03;48.53;;;7.60;99.90;;;;;;5054340;28;20028;-73
2021/04/20 04:06:46;;;;;;;90.65;46.30;;;7.60;99.90;;;;;;5055435;28;20532;-73
2021/04/20 04:09:13;;;;;;;94.53;49.75;;;7.50;99.90;;;;;;5055131;28;20043;-72
2021/04/20 04:11:54;;;;;;;97.40;48.75;;;7.50;99.90;;;;;;5053909;28;20024;-73
2021/04/20 04:14:23;;;;;;;98.28;49.85;;;7.50;99.90;;;;;;5053861;28;20025;-73
2021/04/20 04:16:50;;;;;;;97.18;50.25;;;7.50;99.90;;;;;;5054976;28;20367;-73
2021/04/20 04:19:18;;;;;;;97.90;49.35;;;7.50;99.90;;;;;;5055161;28;20021;-72
2021/04/20 04:21:56;;;;;;;99.40;48.65;;;7.50;99.90;;;;;;5053985;28;20028;-72
2021/04/20 04:24:21;;;;;;;96.55;49.38;;;7.50;99.90;;;;;;5053664;28;20030;-72
2021/04/20 04:26:51;;;;;;;130.85;74.80;;;7.50;99.90;;;;;;5054729;28;20029;-72
2021/04/20 04:29:19;;;;;;;136.32;78.05;;;7.50;99.90;;;;;;5054985;28;20071;-73
2021/04/20 04:31:46;;;;;;;94.30;49.05;;;7.50;99.90;;;;;;5054938;28;20055;-72
2021/04/20 04:34:15;;;;;;;88.88;47.72;;;7.40;99.90;;;;;;5054281;28;20048;-72
2021/04/20 04:36:41;;;;;;;86.93;43.97;;;7.40;99.90;;;;;;5054850;28;20024;-72
2021/04/20 04:39:13;;;;;;;86.00;44.80;;;7.40;99.90;;;;;;5036224;28;20017;-72
2021/04/20 04:41:39;;;;;;;80.47;43.60;;;7.40;99.90;;;;;;5053560;28;20163;-72
2021/04/20 04:44:05;;;;;;;86.70;45.40;;;7.40;99.90;;;;;;5053570;28;20506;-72
2021/04/20 04:47:33;;;;;;;79.63;43.03;;;7.40;99.90;;;;;;5053688;28;20032;-72
2021/04/20 04:50:05;;;;;;;84.63;44.40;;;7.30;99.90;;;;;;5053816;28;20119;-72
2021/04/20 04:52:38;;;;;;;82.28;45.03;;;7.40;99.90;;;;;;5054277;28;20127;-72
2021/04/20 04:55:05;;;;;;;85.20;45.83;;;7.40;99.90;;;;;;5054466;28;20021;-73
2021/04/20 04:57:31;;;;;;;81.18;44.22;;;7.40;99.90;;;;;;5054491;28;20029;-73
2021/04/20 05:00:03;;;;;;;84.18;42.40;;;7.40;99.90;;;;;;5054422;28;20051;-73
2021/04/20 05:02:29;;;;;;;77.68;40.92;;;7.50;99.90;;;;;;5053858;28;20021;-73
2021/04/20 05:04:56;;;;;;;79.15;44.42;;;7.50;99.90;;;;;;5052520;28;20032;-73
2021/04/20 05:07:23;;;;;;;76.38;41.35;;;7.50;99.90;;;;;;5054032;28;20382;-73
2021/04/20 05:09:50;;;;;;;70.75;39.22;;;7.60;99.90;;;;;;5054314;28;20047;-72
2021/04/20 05:12:20;;;;;;;80.60;42.33;;;7.60;99.90;;;;;;5053954;28;20421;-73
2021/04/20 05:14:45;;;;;;;73.05;41.33;;;7.60;99.90;;;;;;5054149;28;20024;-73
2021/04/20 05:17:12;;;;;;;72.10;40.05;;;7.70;99.90;;;;;;5054154;28;20025;-72
2021/04/20 05:19:41;;;;;;;74.20;39.28;;;7.80;99.90;;;;;;5052905;28;20021;-73
2021/04/20 05:22:07;;;;;;;68.93;39.10;;;7.80;99.90;;;;;;5052998;28;20017;-72
2021/04/20 05:24:33;;;;;;;64.75;37.97;;;8.00;99.90;;;;;;5054051;28;20033;-72
2021/04/20 05:26:58;;;;;;;65.15;37.13;;;8.00;99.90;;;;;;5054041;28;20108;-72
2021/04/20 05:29:24;;;;;;;68.22;38.45;;;8.10;99.90;;;;;;5035572;28;20102;-73
2021/04/20 05:31:51;;;;;;;64.97;36.17;;;8.20;99.90;;;;;;5052183;28;20364;-73
2021/04/20 05:34:19;;;;;;;61.08;36.03;;;8.20;99.90;;;;;;5053453;28;20521;-73
2021/04/20 05:36:47;;;;;;;63.13;36.92;;;8.20;99.90;;;;;;5053952;28;20017;-72
2021/04/20 05:39:13;;;;;;;63.72;36.55;;;8.30;99.90;;;;;;5053864;28;20155;-73
2021/04/20 05:41:40;;;;;;;72.25;36.00;;;8.40;99.90;;;;;;5052472;28;20049;-72
2021/04/20 05:44:08;;;;;;;57.90;34.50;;;8.70;99.90;;;;;;5052369;28;20107;-73
2021/04/20 05:46:36;;;;;;;54.88;32.60;;;9.00;99.90;;;;;;5053772;28;20033;-72
2021/04/20 05:49:04;;;;;;;56.38;33.33;;;9.10;99.90;;;;;;5035393;28;20078;-73
2021/04/20 05:51:29;;;;;;;52.38;31.65;;;9.40;99.90;;;;;;5055639;28;20108;-73
2021/04/20 05:53:55;;;;;;;45.60;28.60;;;10.10;99.90;;;;;;5057314;28;20056;-73
2021/04/20 05:56:22;;;;;;;50.53;28.27;;;10.90;99.90;;;;;;5057376;28;20027;-73
2021/04/20 05:58:53;;;;;;;44.58;26.60;;;11.50;99.90;;;;;;5056015;28;20020;-73
2021/04/20 06:01:20;;;;;;;41.38;26.33;;;12.10;99.90;;;;;;5057115;28;20021;-72
2021/04/20 06:03:47;;;;;;;38.75;25.60;;;12.50;99.90;;;;;;5055947;28;20074;-73
2021/04/20 06:06:15;;;;;;;42.08;26.27;;;12.60;99.90;;;;;;5056701;28;20033;-73
2021/04/20 06:08:42;;;;;;;37.80;26.50;;;13.00;99.90;;;;;;5056562;28;20078;-73
2021/04/20 06:11:09;;;;;;;39.25;25.80;;;13.50;99.90;;;;;;5056764;28;20021;-73
2021/04/20 06:13:35;;;;;;;35.58;26.00;;;13.70;99.90;;;;;;5057510;28;20032;-73
2021/04/20 06:16:01;;;;;;;41.05;23.30;;;14.30;99.90;;;;;;5057071;28;20378;-73
2021/04/20 06:18:27;;;;;;;34.33;23.52;;;14.80;99.90;;;;;;5057147;28;20029;-74
2021/04/20 06:20:55;;;;;;;35.17;24.38;;;15.10;99.90;;;;;;5057357;28;20068;-74
2021/04/20 06:23:21;;;;;;;30.85;20.55;;;15.40;99.90;;;;;;5055452;28;20104;-73
2021/04/20 06:25:48;;;;;;;31.45;20.13;;;15.80;99.90;;;;;;5056924;28;20025;-74
2021/04/20 06:28:14;;;;;;;24.55;19.83;;;15.40;99.90;;;;;;5056486;28;20477;-74
2021/04/20 06:30:41;;;;;;;24.05;18.55;;;15.80;99.90;;;;;;5056629;28;20036;-74
2021/04/20 06:33:08;;;;;;;25.00;18.20;;;15.80;99.90;;;;;;5056523;28;20053;-73
2021/04/20 06:35:34;;;;;;;26.63;18.67;;;16.00;99.90;;;;;;5054320;28;20090;-74
2021/04/20 06:38:01;;;;;;;32.47;20.05;;;16.10;99.90;;;;;;5053955;28;20028;-74
2021/04/20 06:40:40;;;;;;;24.75;18.98;;;15.70;99.90;;;;;;5056661;28;20017;-74
2021/04/20 06:43:10;;;;;;;28.95;20.77;;;15.30;99.90;;;;;;5056243;28;20024;-73
2021/04/20 06:45:46;;;;;;;28.85;22.02;;;15.70;99.90;;;;;;5055069;28;20033;-74
2021/04/20 06:48:39;;;;;;;30.83;21.75;;;16.10;99.90;;;;;;5056948;28;20027;-74
2021/04/20 06:51:13;;;;;;;23.73;19.38;;;16.30;99.90;;;;;;5055304;28;20071;-74
2021/04/20 06:53:44;;;;;;;27.45;20.20;;;16.10;99.90;;;;;;5055003;28;20087;-74
2021/04/20 06:56:32;;;;;;;32.70;20.88;;;16.20;99.90;;;;;;5056394;28;20094;-74
2021/04/20 06:59:23;;;;;;;28.55;21.08;;;16.10;99.90;;;;;;5055010;28;20439;-74
2021/04/20 07:02:01;;;;;;;28.13;21.98;;;16.70;99.90;;;;;;5054261;28;20021;-74
2021/04/20 07:04:40;;;;;;;28.95;21.67;;;16.60;99.90;;;;;;5052592;28;20592;-74
2021/04/20 07:07:31;;;;;;;29.90;22.20;;;16.80;99.90;;;;;;5056504;28;20021;-74
2021/04/20 07:10:04;;;;;;;31.45;23.65;;;17.00;99.90;;;;;;5056134;28;20474;-75
2021/04/20 07:12:33;;;;;;;43.45;30.80;;;17.30;99.90;;;;;;5055189;28;20029;-75
2021/04/20 07:15:02;;;;;;;38.58;28.67;;;17.70;99.90;;;;;;5055317;28;20083;-75
2021/04/20 07:17:50;;;;;;;38.85;27.60;;;17.30;99.90;;;;;;5055815;28;20021;-72
2021/04/20 07:20:35;;;;;;;35.72;24.50;;;17.20;99.90;;;;;;5054395;28;20024;-74
2021/04/20 07:23:41;;;;;;;35.17;26.60;;;17.00;99.90;;;;;;5035660;28;20044;-74
2021/04/20 07:26:32;;;;;;;37.40;27.52;;;17.40;99.90;;;;;;5035559;28;20060;-75
2021/04/20 07:29:38;;;;;;;39.45;26.98;;;17.40;99.90;;;;;;5035349;28;20434;-73
2021/04/20 07:32:43;;;;;;;38.92;27.88;;;17.70;99.90;;;;;;5035210;28;20116;-74
2021/04/20 07:35:31;;;;;;;42.97;29.65;;;17.60;99.90;;;;;;5035045;28;20483;-73
2021/04/20 07:38:02;;;;;;;37.53;28.98;;;17.80;99.90;;;;;;5035926;28;20139;-74
2021/04/20 07:40:40;;;;;;;38.35;27.67;;;18.00;99.90;;;;;;5035841;28;20020;-74
2021/04/20 07:43:37;;;;;;;42.50;30.35;;;18.30;99.90;;;;;;5035984;28;20106;-74
2021/04/20 07:46:27;;;;;;;41.03;28.65;;;18.10;99.90;;;;;;5035089;28;20033;-74
2021/04/20 07:48:59;;;;;;;40.75;31.52;;;18.00;99.90;;;;;;5035670;28;20120;-74
2021/04/20 07:51:52;;;;;;;42.05;31.00;;;18.30;99.90;;;;;;5035251;28;20049;-74
2021/04/20 07:54:44;;;;;;;43.95;32.05;;;18.40;99.90;;;;;;5064622;28;20029;-74
2021/04/20 07:57:24;;;;;;;44.40;31.35;;;18.80;99.90;;;;;;5058515;28;20028;-74
2021/04/20 07:59:58;;;;;;;39.75;29.65;;;19.70;99.90;;;;;;5054111;28;20029;-74
2021/04/20 08:02:46;;;;;;;41.38;31.55;;;20.20;99.90;;;;;;5055019;28;20025;-75
2021/04/20 08:05:48;;;;;;;39.60;30.92;;;19.80;99.90;;;;;;5054751;28;20029;-75
2021/04/20 08:08:44;;;;;;;40.63;31.00;;;20.50;99.90;;;;;;5072192;28;20021;-74
2021/04/20 08:11:28;;;;;;;45.78;31.83;;;21.30;96.10;;;;;;5073402;28;20027;-74
2021/04/20 08:14:18;;;;;;;40.83;32.00;;;21.60;93.60;;;;;;5074303;28;20047;-75
2021/04/20 08:16:51;;;;;;;42.47;33.03;;;20.70;96.70;;;;;;5074385;28;20462;-75
2021/04/20 08:19:23;;;;;;;40.90;32.95;;;20.40;98.90;;;;;;5073326;28;20366;-74
2021/04/20 08:21:50;;;;;;;43.55;33.70;;;20.60;95.30;;;;;;5034838;28;20025;-75
2021/04/20 08:24:28;;;;;;;43.78;33.17;;;20.50;97.80;;;;;;5035078;28;20458;-76
2021/04/20 08:27:01;;;;;;;46.15;34.65;;;21.30;96.20;;;;;;5035041;28;20416;-76
2021/04/20 08:29:29;;;;;;;42.95;33.78;;;21.10;96.70;;;;;;5033244;28;20033;-75
2021/04/20 08:32:07;;;;;;;43.30;33.42;;;21.00;97.00;;;;;;5034567;28;20493;-76
2021/04/20 08:37:32;;;;;;;49.92;35.67;;;21.00;96.20;;;;;;5112025;27;20109;-73
2021/04/20 08:40:25;;;;;;;46.78;35.67;;;22.30;93.50;;;;;;5111593;28;20032;-74
2021/04/20 08:43:08;;;;;;;42.50;33.37;;;22.10;91.20;;;;;;5111403;28;20145;-73
2021/04/20 08:46:02;;;;;;;44.05;35.58;;;21.60;95.60;;;;;;5110881;28;20535;-76
2021/04/20 08:48:56;;;;;;;40.38;31.42;;;21.80;91.80;;;;;;5111304;28;20056;-74
2021/04/20 08:51:36;;;;;;;42.88;32.70;;;21.20;92.40;;;;;;5110599;28;20092;-74
2021/04/20 08:54:41;;;;;;;42.17;32.75;;;21.00;94.10;;;;;;5110049;28;20038;-73
2021/04/20 08:57:18;;;;;;;38.38;30.98;;;20.70;98.00;;;;;;5108046;28;20032;-75
2021/04/20 09:02:41;;;;;;;40.55;32.63;;;21.50;94.80;;;;;;5111458;27;20340;-74
2021/04/20 09:05:19;;;;;;;39.92;32.60;;;21.70;95.20;;;;;;5109737;28;20057;-74
2021/04/20 09:10:44;;;;;;;38.45;31.10;;;21.00;95.60;;;;;;5111333;27;20109;-74
2021/04/20 09:13:19;;;;;;;40.20;32.08;;;21.80;95.20;;;;;;5144209;27;20417;-74
2021/04/20 09:16:00;;;;;;;41.83;32.03;;;22.50;92.40;;;;;;5109669;28;20015;-74
2021/04/20 09:18:35;;;;;;;43.10;33.70;;;22.40;91.20;;;;;;5094822;28;20023;-74
2021/04/20 09:21:10;;;;;;;43.15;34.00;;;22.60;90.60;;;;;;5111405;28;20047;-74
2021/04/20 09:24:01;;;;;;;38.42;32.03;;;22.10;92.40;;;;;;5110384;28;20039;-74
2021/04/20 09:26:50;;;;;;;38.38;31.98;;;22.40;93.80;;;;;;5109932;28;20027;-74
2021/04/20 09:29:29;;;;;;;35.03;29.67;;;22.10;92.90;;;;;;5111435;28;20110;-74
2021/04/20 09:31:58;;;;;;;41.38;32.13;;;23.20;89.00;;;;;;5111216;28;20020;-74
2021/04/20 09:34:30;;;;;;;37.00;31.90;;;23.10;90.40;;;;;;5109787;28;20388;-74
2021/04/20 09:36:57;;;;;;;40.47;32.17;;;23.40;88.90;;;;;;5111464;28;20113;-74
2021/04/20 09:39:23;;;;;;;37.70;30.42;;;22.80;90.10;;;;;;5109533;28;20023;-74
2021/04/20 09:41:51;;;;;;;39.45;30.17;;;22.10;85.50;;;;;;5111018;28;20024;-74
2021/04/20 09:44:41;;;;;;;36.45;30.33;;;22.00;93.50;;;;;;5110098;28;20027;-74
2021/04/20 09:50:07;;;;;;;33.58;29.63;;;21.60;94.60;;;;;;5110592;27;20390;-73
2021/04/20 09:52:44;;;;;;;34.08;26.80;;;20.30;97.50;;;;;;5111457;28;20388;-74
2021/04/20 09:55:17;;;;;;;32.15;26.38;;;19.70;99.20;;;;;;5111535;28;20048;-74
2021/04/20 09:57:46;;;;;;;35.33;26.88;;;19.10;99.90;;;;;;5110200;28;20027;-75
2021/04/20 10:00:14;;;;;;;38.65;27.17;;;19.70;99.90;;;;;;5111201;28;20077;-74
2021/04/20 10:08:35;;;;;;;38.88;28.50;;;18.80;99.90;;;;;;5112060;27;20343;-75
2021/04/20 10:11:13;;;;;;;36.90;27.75;;;18.30;99.90;;;;;;5111004;28;20024;-76
2021/04/20 10:14:18;;;;;;;38.88;29.17;;;18.00;99.90;;;;;;5111588;28;20046;-75
2021/04/20 10:17:10;;;;;;;40.75;29.42;;;18.20;99.90;;;;;;5109475;28;20028;-76
2021/04/20 10:19:52;;;;;;;42.08;27.05;;;18.40;99.90;;;;;;5109462;28;20016;-75
2021/04/20 10:22:43;;;;;;;37.40;26.58;;;18.10;99.90;;;;;;5110956;28;20069;-75
2021/04/20 10:25:38;;;;;;;39.38;27.55;;;17.80;99.90;;;;;;5110969;28;20385;-75
2021/04/20 10:28:21;;;;;;;36.17;26.73;;;17.00;99.90;;;;;;5110497;28;20035;-75
2021/04/20 10:30:51;;;;;;;34.50;25.27;;;17.10;99.90;;;;;;5110876;28;20107;-75
2021/04/20 10:33:21;;;;;;;34.25;25.38;;;18.70;99.90;;;;;;5109705;28;20108;-75
2021/04/20 10:35:53;;;;;;;30.63;24.77;;;19.70;99.90;;;;;;5110549;28;20050;-76
2021/04/20 10:38:22;;;;;;;34.28;24.67;;;20.30;99.90;;;;;;5110416;28;20024;-76
2021/04/20 10:40:49;;;;;;;32.33;24.33;;;21.30;99.90;;;;;;5110893;28;20092;-76
2021/04/20 10:43:19;;;;;;;31.83;24.85;;;21.10;98.10;;;;;;5110602;28;20481;-76
2021/04/20 10:45:46;;;;;;;33.22;25.15;;;21.60;96.90;;;;;;5109752;28;20028;-76
2021/04/20 10:48:20;;;;;;;31.23;24.48;;;21.50;96.40;;;;;;5109255;28;20024;-76
2021/04/20 10:50:49;;;;;;;33.53;26.95;;;21.40;96.70;;;;;;5110478;28;20012;-76
2021/04/20 10:53:36;;;;;;;32.90;25.45;;;21.10;97.00;;;;;;5110562;28;20099;-76
2021/04/20 10:56:06;;;;;;;34.88;26.77;;;21.10;99.90;;;;;;5110842;28;20019;-76
2021/04/20 10:58:36;;;;;;;37.70;28.48;;;21.00;98.00;;;;;;5110112;28;20016;-76
2021/04/20 11:01:02;;;;;;;38.08;30.05;;;21.20;99.30;;;;;;5110240;28;20072;-76
2021/04/20 11:03:36;;;;;;;41.10;29.05;;;19.90;99.90;;;;;;5110495;28;20020;-76
2021/04/20 11:06:03;;;;;;;38.88;29.67;;;18.80;99.90;;;;;;5108705;28;20052;-76
2021/04/20 11:11:21;;;;;;;40.55;28.70;;;18.10;99.90;;;;;;5111794;27;20404;-76
2021/04/20 11:13:48;;;;;;;36.72;27.10;;;18.90;99.90;;;;;;5110041;28;20028;-74
2021/04/20 11:16:23;;;;;;;37.78;28.23;;;19.10;99.90;;;;;;5111405;28;20353;-76
2021/04/20 11:18:57;;;;;;;38.10;27.67;;;18.90;99.90;;;;;;5111065;28;20027;-76
2021/04/20 11:21:26;;;;;;;38.05;27.17;;;18.70;99.90;;;;;;5111271;28;20016;-75
2021/04/20 11:23:57;;;;;;;34.55;26.25;;;18.90;99.90;;;;;;5111285;28;20439;-77
2021/04/20 11:26:29;;;;;;;36.10;26.38;;;18.90;99.90;;;;;;5092749;28;20020;-76
2021/04/20 11:28:59;;;;;;;34.65;24.88;;;19.10;99.90;;;;;;5111108;28;20391;-76
2021/04/20 11:31:36;;;;;;;37.97;26.77;;;19.30;99.90;;;;;;5111162;28;20472;-76
2021/04/20 11:36:47;;;;;;;34.58;23.95;;;20.50;97.90;;;;;;5091640;28;20406;-74
2021/04/20 11:39:35;;;;;;;30.95;23.42;;;20.80;99.90;;;;;;5090785;28;20052;-74
2021/04/20 11:42:05;;;;;;;34.65;26.23;;;21.20;97.50;;;;;;5090646;28;20032;-74
2021/04/20 11:44:37;;;;;;;35.05;26.65;;;21.00;99.30;;;;;;5089706;28;20074;-74
2021/04/20 11:47:06;;;;;;;34.78;28.92;;;20.90;99.90;;;;;;5090381;28;20063;-75
2021/04/20 11:49:34;;;;;;;35.33;26.40;;;20.00;99.40;;;;;;5091081;28;20030;-75
2021/04/20 11:52:00;;;;;;;36.58;27.52;;;20.10;99.90;;;;;;5090557;28;20507;-74
2021/04/20 11:54:32;;;;;;;35.53;24.88;;;18.90;99.90;;;;;;5089726;28;20024;-74
2021/04/20 11:57:02;;;;;;;31.95;24.73;;;18.60;99.90;;;;;;5091360;28;20044;-74
2021/04/20 11:59:30;;;;;;;34.55;25.63;;;18.60;99.90;;;;;;5089606;28;20077;-75
2021/04/20 12:01:57;;;;;;;31.45;24.25;;;18.50;99.90;;;;;;5089923;28;20012;-75
2021/04/20 12:04:27;;;;;;;37.20;26.92;;;18.20;99.90;;;;;;5090271;28;20167;-74
2021/04/20 12:06:55;;;;;;;37.72;26.83;;;18.40;99.90;;;;;;5089899;28;20048;-75
2021/04/20 12:09:23;;;;;;;35.22;26.00;;;18.30;99.90;;;;;;5085752;28;20083;-74
2021/04/20 12:11:49;;;;;;;42.35;28.20;;;17.70;99.90;;;;;;5088752;28;20020;-74
2021/04/20 12:14:21;;;;;;;40.47;29.65;;;18.00;99.90;;;;;;5089065;28;20023;-74
2021/04/20 12:16:49;;;;;;;31.95;23.45;;;18.60;99.90;;;;;;5090181;28;20077;-74
2021/04/20 12:19:18;;;;;;;30.88;21.45;;;18.80;99.90;;;;;;5090332;28;20096;-74
2021/04/20 12:21:47;;;;;;;35.20;26.33;;;18.60;99.90;;;;;;5089130;28;20028;-74
2021/04/20 12:24:18;;;;;;;34.78;26.25;;;18.50;99.90;;;;;;5089071;28;20017;-74
2021/04/20 12:26:50;;;;;;;36.47;26.38;;;18.20;99.90;;;;;;5090230;28;20044;-74
2021/04/20 12:29:19;;;;;;;39.08;27.75;;;18.40;99.90;;;;;;5090405;28;20434;-73
2021/04/20 12:31:45;;;;;;;35.92;26.05;;;17.60;99.90;;;;;;5088765;28;20024;-74
2021/04/20 12:34:11;;;;;;;39.22;27.02;;;17.90;99.90;;;;;;5089829;28;20025;-74
2021/04/20 12:36:53;;;;;;;37.70;28.35;;;18.50;99.90;;;;;;5089642;28;20052;-75
2021/04/20 12:39:30;;;;;;;42.05;31.35;;;18.50;99.90;;;;;;5089769;28;20020;-76
2021/04/20 12:41:59;;;;;;;40.75;29.15;;;18.70;99.90;;;;;;5089994;28;20029;-76
2021/04/20 12:44:34;;;;;;;37.20;25.80;;;18.90;99.90;;;;;;5089596;28;20020;-76
2021/04/20 12:47:01;;;;;;;33.10;25.48;;;19.00;99.90;;;;;;5081976;28;20028;-76
2021/04/20 12:49:27;;;;;;;37.95;27.10;;;18.90;99.90;;;;;;5076032;28;20052;-75
2021/04/20 12:51:55;;;;;;;38.78;27.13;;;19.00;99.90;;;;;;5076035;28;20020;-76
2021/04/20 12:54:22;;;;;;;42.75;31.05;;;19.50;99.90;;;;;;5075846;28;20022;-76
2021/04/20 12:56:58;;;;;;;35.65;27.02;;;19.80;99.90;;;;;;5076227;28;20075;-76
2021/04/20 12:59:25;;;;;;;31.05;22.70;;;19.70;99.90;;;;;;5074604;28;20021;-76
2021/04/20 13:01:53;;;;;;;28.92;20.38;;;19.90;99.90;;;;;;5076111;28;20021;-76
2021/04/20 13:04:32;;;;;;;24.77;19.27;;;20.30;96.00;;;;;;5075352;28;20047;-76
2021/04/20 13:06:59;;;;;;;29.85;21.83;;;20.30;94.80;;;;;;5075611;28;20564;-76
2021/04/20 13:09:29;;;;;;;31.20;21.98;;;20.20;94.40;;;;;;5074645;28;20024;-76
2021/04/20 13:11:56;;;;;;;31.50;22.85;;;20.10;94.80;;;;;;5074565;28;20415;-76
2021/04/20 13:14:22;;;;;;;27.80;20.30;;;19.70;96.20;;;;;;5074692;28;20059;-76
2021/04/20 13:16:52;;;;;;;34.75;24.00;;;19.90;94.50;;;;;;5075631;28;20024;-76